VAF138 LICD-LICR
Flight info
| Callsign | VAF138 |
|---|---|
| Flight time | 0h 40m |
| Altitude | 29000 |
| Route | AGMUB DCT DOKIK DCT ARFOL/N0401F280 DCT BERMI |
| Aircraft | A320/M-SDE3FGHIRWY/LB1 |
Departure
| Time | 2026-05-01 07:38 |
|---|---|
| Airport | Lampedusa Airport (LICD) |
Arrival
| Time | 2026-05-01 08:19 |
|---|---|
| Airport | Reggio Calabria Airport (LICR) |
| Time | Latitude | Longitude | Altitude | Speed | Heading |
|---|---|---|---|---|---|
| 2026-05-01 07:31 | 35.49918 | 12.61533 | 55 ft | 0 kts | 295° |
| 2026-05-01 07:35 | 35.49918 | 12.61532 | 55 ft | 0 kts | 295° |
| 2026-05-01 07:35 | 35.49920 | 12.61530 | 56 ft | 4 kts | 301° |
| 2026-05-01 07:36 | 35.49922 | 12.61569 | 57 ft | 10 kts | 158° |
| 2026-05-01 07:36 | 35.49861 | 12.61598 | 54 ft | 9 kts | 159° |
| 2026-05-01 07:36 | 35.49793 | 12.61623 | 56 ft | 18 kts | 200° |
| 2026-05-01 07:36 | 35.49738 | 12.61371 | 49 ft | 39 kts | 261° |
| 2026-05-01 07:37 | 35.49684 | 12.60863 | 50 ft | 10 kts | 228° |
| 2026-05-01 07:37 | 35.49669 | 12.60884 | 56 ft | 0 kts | 72° |
| 2026-05-01 07:37 | 35.49680 | 12.60943 | 37 ft | 36 kts | 79° |
| 2026-05-01 07:38 | 35.49764 | 12.61561 | 47 ft | 106 kts | 80° |
| 2026-05-01 07:38 | 35.49899 | 12.62614 | 371 ft | 128 kts | 84° |
| 2026-05-01 07:38 | 35.50171 | 12.64760 | 1646 ft | 135 kts | 81° |
| 2026-05-01 07:39 | 35.50340 | 12.65986 | 1982 ft | 157 kts | 81° |
| 2026-05-01 07:39 | 35.50538 | 12.67408 | 2335 ft | 181 kts | 81° |
| 2026-05-01 07:39 | 35.51014 | 12.70864 | 3135 ft | 230 kts | 79° |
| 2026-05-01 07:40 | 35.51164 | 12.72913 | 3617 ft | 254 kts | 94° |
| 2026-05-01 07:40 | 35.50968 | 12.75121 | 4370 ft | 265 kts | 95° |
| 2026-05-01 07:40 | 35.50760 | 12.77403 | 5221 ft | 273 kts | 92° |
| 2026-05-01 07:40 | 35.50548 | 12.79750 | 6047 ft | 281 kts | 94° |
| 2026-05-01 07:41 | 35.50334 | 12.82157 | 6885 ft | 287 kts | 94° |
| 2026-05-01 07:41 | 35.50119 | 12.84587 | 7689 ft | 293 kts | 94° |
| 2026-05-01 07:41 | 35.49667 | 12.89666 | 9327 ft | 305 kts | 95° |
| 2026-05-01 07:42 | 35.49431 | 12.92275 | 10146 ft | 310 kts | 95° |
| 2026-05-01 07:42 | 35.49186 | 12.94985 | 10549 ft | 331 kts | 95° |
| 2026-05-01 07:42 | 35.48927 | 12.97888 | 10925 ft | 350 kts | 95° |
| 2026-05-01 07:42 | 35.48656 | 13.00897 | 11578 ft | 359 kts | 95° |
| 2026-05-01 07:43 | 35.48378 | 13.03960 | 12314 ft | 364 kts | 95° |
| 2026-05-01 07:43 | 35.48096 | 13.07066 | 13053 ft | 369 kts | 95° |
| 2026-05-01 07:43 | 35.47624 | 13.13426 | 14439 ft | 379 kts | 92° |
| 2026-05-01 07:44 | 35.48062 | 13.19887 | 15685 ft | 384 kts | 70° |
| 2026-05-01 07:44 | 35.50561 | 13.25623 | 16957 ft | 383 kts | 45° |
| 2026-05-01 07:45 | 35.52451 | 13.27913 | 17614 ft | 381 kts | 35° |
| 2026-05-01 07:45 | 35.54484 | 13.30027 | 18265 ft | 385 kts | 35° |
| 2026-05-01 07:45 | 35.56540 | 13.32158 | 18828 ft | 389 kts | 35° |
| 2026-05-01 07:45 | 35.58617 | 13.34314 | 19394 ft | 392 kts | 35° |
| 2026-05-01 07:46 | 35.60709 | 13.36487 | 19961 ft | 396 kts | 35° |
| 2026-05-01 07:46 | 35.62816 | 13.38683 | 20525 ft | 399 kts | 35° |
| 2026-05-01 07:46 | 35.67079 | 13.43145 | 21661 ft | 405 kts | 36° |
| 2026-05-01 07:47 | 35.69209 | 13.45373 | 22206 ft | 409 kts | 36° |
| 2026-05-01 07:47 | 35.71386 | 13.47649 | 22769 ft | 412 kts | 36° |
| 2026-05-01 07:47 | 35.73606 | 13.49976 | 23337 ft | 416 kts | 36° |
| 2026-05-01 07:47 | 35.75794 | 13.52271 | 23789 ft | 421 kts | 35° |
| 2026-05-01 07:48 | 35.80288 | 13.56995 | 24635 ft | 428 kts | 35° |
| 2026-05-01 07:48 | 35.82556 | 13.59381 | 25065 ft | 431 kts | 35° |
| 2026-05-01 07:48 | 35.84840 | 13.61787 | 25478 ft | 433 kts | 35° |
| 2026-05-01 07:49 | 35.87138 | 13.64207 | 25885 ft | 436 kts | 35° |
| 2026-05-01 07:49 | 35.91779 | 13.69099 | 26688 ft | 441 kts | 35° |
| 2026-05-01 07:49 | 35.94117 | 13.71568 | 27064 ft | 444 kts | 35° |
| 2026-05-01 07:50 | 35.96471 | 13.74051 | 27478 ft | 446 kts | 35° |
| 2026-05-01 07:50 | 36.01203 | 13.79050 | 28089 ft | 449 kts | 35° |
| 2026-05-01 07:50 | 36.03544 | 13.81534 | 28124 ft | 434 kts | 35° |
| 2026-05-01 07:51 | 36.08050 | 13.86326 | 28133 ft | 424 kts | 34° |
| 2026-05-01 07:52 | 36.14775 | 13.93446 | 28129 ft | 424 kts | 34° |
| 2026-05-01 07:52 | 36.19224 | 13.98169 | 28129 ft | 424 kts | 34° |
| 2026-05-01 07:53 | 36.25920 | 14.05321 | 28133 ft | 424 kts | 34° |
| 2026-05-01 07:53 | 36.30386 | 14.10087 | 28134 ft | 423 kts | 34° |
| 2026-05-01 07:55 | 36.41539 | 14.22031 | 28160 ft | 424 kts | 34° |
| 2026-05-01 07:56 | 36.52682 | 14.34009 | 28139 ft | 424 kts | 34° |
| 2026-05-01 07:57 | 36.59361 | 14.41216 | 28125 ft | 424 kts | 34° |
| 2026-05-01 07:58 | 36.68234 | 14.50816 | 28141 ft | 424 kts | 33° |
| 2026-05-01 07:59 | 36.77123 | 14.60463 | 28132 ft | 423 kts | 33° |
| 2026-05-01 08:00 | 36.90391 | 14.74334 | 26495 ft | 401 kts | 30° |
| 2026-05-01 08:01 | 36.96859 | 14.80771 | 25155 ft | 392 kts | 31° |
| 2026-05-01 08:01 | 36.98977 | 14.82909 | 24685 ft | 391 kts | 31° |
| 2026-05-01 08:01 | 37.01084 | 14.85044 | 24222 ft | 389 kts | 31° |
| 2026-05-01 08:02 | 37.05289 | 14.89306 | 23191 ft | 388 kts | 31° |
| 2026-05-01 08:02 | 37.07385 | 14.91427 | 22701 ft | 385 kts | 31° |
| 2026-05-01 08:03 | 37.11527 | 14.95628 | 21727 ft | 380 kts | 31° |
| 2026-05-01 08:03 | 37.13571 | 14.97709 | 21251 ft | 378 kts | 32° |
| 2026-05-01 08:03 | 37.17629 | 15.01842 | 20294 ft | 374 kts | 32° |
| 2026-05-01 08:04 | 37.21633 | 15.05920 | 19344 ft | 372 kts | 32° |
| 2026-05-01 08:04 | 37.25644 | 15.10006 | 18392 ft | 371 kts | 33° |
| 2026-05-01 08:05 | 37.29624 | 15.14075 | 17415 ft | 366 kts | 33° |
| 2026-05-01 08:05 | 37.31594 | 15.16089 | 16955 ft | 363 kts | 33° |
| 2026-05-01 08:05 | 37.33546 | 15.18085 | 16502 ft | 361 kts | 33° |
| 2026-05-01 08:06 | 37.37419 | 15.22048 | 15621 ft | 356 kts | 33° |
| 2026-05-01 08:06 | 37.41229 | 15.25963 | 14754 ft | 351 kts | 34° |
| 2026-05-01 08:07 | 37.44971 | 15.29808 | 13970 ft | 346 kts | 34° |
| 2026-05-01 08:07 | 37.48684 | 15.33622 | 12954 ft | 343 kts | 34° |
| 2026-05-01 08:08 | 37.50569 | 15.35406 | 12548 ft | 335 kts | 26° |
| 2026-05-01 08:08 | 37.54781 | 15.37664 | 11615 ft | 326 kts | 17° |
| 2026-05-01 08:09 | 37.58968 | 15.39771 | 10681 ft | 322 kts | 18° |
| 2026-05-01 08:09 | 37.61040 | 15.40820 | 10265 ft | 320 kts | 18° |
| 2026-05-01 08:09 | 37.63068 | 15.41849 | 10115 ft | 308 kts | 18° |
| 2026-05-01 08:10 | 37.66882 | 15.43796 | 9476 ft | 286 kts | 18° |
| 2026-05-01 08:10 | 37.70518 | 15.45645 | 8105 ft | 278 kts | 18° |
| 2026-05-01 08:11 | 37.73988 | 15.47296 | 7345 ft | 250 kts | 14° |
| 2026-05-01 08:11 | 37.77162 | 15.48620 | 6539 ft | 233 kts | 14° |
| 2026-05-01 08:12 | 37.80272 | 15.49901 | 5267 ft | 238 kts | 15° |
| 2026-05-01 08:12 | 37.81842 | 15.50556 | 4770 ft | 234 kts | 15° |
| 2026-05-01 08:12 | 37.84716 | 15.51775 | 4434 ft | 201 kts | 16° |
| 2026-05-01 08:13 | 37.86015 | 15.52329 | 4361 ft | 194 kts | 15° |
| 2026-05-01 08:13 | 37.87289 | 15.52872 | 4248 ft | 192 kts | 14° |
| 2026-05-01 08:13 | 37.89370 | 15.54995 | 4067 ft | 202 kts | 58° |
| 2026-05-01 08:14 | 37.89792 | 15.56670 | 3976 ft | 205 kts | 81° |
| 2026-05-01 08:14 | 37.89980 | 15.58463 | 3697 ft | 208 kts | 75° |
| 2026-05-01 08:14 | 37.90594 | 15.60028 | 3484 ft | 188 kts | 47° |
| 2026-05-01 08:14 | 37.91582 | 15.61044 | 3408 ft | 179 kts | 23° |
| 2026-05-01 08:15 | 37.92678 | 15.61553 | 3236 ft | 159 kts | 13° |
| 2026-05-01 08:15 | 37.94399 | 15.62282 | 2886 ft | 159 kts | 16° |
| 2026-05-01 08:15 | 37.95443 | 15.62723 | 2667 ft | 160 kts | 17° |
| 2026-05-01 08:16 | 37.96499 | 15.63159 | 2444 ft | 159 kts | 15° |
| 2026-05-01 08:16 | 37.97544 | 15.63588 | 2219 ft | 158 kts | 17° |
| 2026-05-01 08:16 | 37.98563 | 15.64006 | 2017 ft | 150 kts | 18° |
| 2026-05-01 08:16 | 37.99541 | 15.64405 | 1828 ft | 145 kts | 18° |
| 2026-05-01 08:17 | 38.00503 | 15.64711 | 1590 ft | 140 kts | 15° |
| 2026-05-01 08:17 | 38.01426 | 15.65052 | 1454 ft | 139 kts | 19° |
| 2026-05-01 08:17 | 38.02328 | 15.65438 | 1278 ft | 136 kts | 23° |
| 2026-05-01 08:17 | 38.03198 | 15.65910 | 1125 ft | 136 kts | 28° |
| 2026-05-01 08:18 | 38.04047 | 15.66428 | 943 ft | 136 kts | 23° |
| 2026-05-01 08:18 | 38.05900 | 15.65957 | 268 ft | 139 kts | 330° |
| 2026-05-01 08:19 | 38.07517 | 15.64889 | 63 ft | 104 kts | 332° |
| 2026-05-01 08:19 | 38.08016 | 15.64569 | 65 ft | 50 kts | 334° |
| 2026-05-01 08:19 | 38.08243 | 15.64426 | 57 ft | 0 kts | 333° |